West Storm Lake, Iowa
Current Conditions -  °F | °C
As of 12:15 PM on Saturday 20 Dec 2014 (Local Time) from KSLB Reporting Station
Haze Haze  
Wind Chill: 23°   Ceiling: 400
Heat Index: 30°   Visibility: 3mi
Dew Point: 30°   Wind: 8mph
Humidity: 100%   Direction: 180°S
Pressure: 30.08"   Gusts: NA
Location:  42.674°N, 95.1635°W
Report Text: KSLB 201815Z AUTO 18007KT 3SM BR BKN004 OVC007 M01/M01 A3008 RMK AO2
Loading
Personal Weather Stations






























Interactive Weather Map New forecast layout! Learn more

10-Day Weather Forecast

Advertisements
Track Severe Weather on mobile